Time;durP1;ratioP1;P1;durP2;ratioP2;P2;SDS_P1;SDS_P2;PMS_P1;PMS_P2;Temp;Humidity;BMP_temperature;BMP_pressure;BME280_temperature;BME280_humidity;BME280_pressure;Samples;Min_cycle;Max_cycle;Signal;HPM_P1;HPM_P2
2023/04/17 00:02:24;;;;;;;36.03;19.10;;;;;;;;;;5103964;28;20051;-69
2023/04/17 00:04:52;;;;;;;39.22;18.98;;;;;;;;;;5105104;28;20075;-69
2023/04/17 00:07:21;;;;;;;36.72;19.23;;;;;;;;;;5104704;28;20058;-69
2023/04/17 00:09:48;;;;;;;40.35;19.95;;;;;;;;;;5104411;28;20035;-69
2023/04/17 00:12:16;;;;;;;39.22;19.02;;;;;;;;;;5107495;27;20052;-69
2023/04/17 00:14:43;;;;;;;32.92;19.10;;;;;;;;;;5108870;28;20371;-69
2023/04/17 00:17:10;;;;;;;35.05;19.50;;;;;;;;;;5105436;28;20052;-69
2023/04/17 00:19:37;;;;;;;33.35;17.98;;;;;;;;;;5107878;28;20051;-68
2023/04/17 00:22:04;;;;;;;28.45;17.67;;;;;;;;;;5107189;28;20485;-69
2023/04/17 00:24:33;;;;;;;33.55;18.67;;;;;;;;;;5105089;28;20067;-69
2023/04/17 00:27:01;;;;;;;33.55;18.60;;;;;;;;;;5102346;27;20136;-69
2023/04/17 00:29:28;;;;;;;37.13;19.65;;;;;;;;;;5108184;28;20475;-69
2023/04/17 00:31:55;;;;;;;41.58;21.90;;;;;;;;;;5103369;28;20047;-69
2023/04/17 00:34:22;;;;;;;37.42;21.92;;;;;;;;;;5105287;28;20053;-69
2023/04/17 00:36:50;;;;;;;42.05;20.75;;;;;;;;;;5106280;28;20052;-69
2023/04/17 00:39:17;;;;;;;31.40;19.13;;;;;;;;;;5107715;27;20118;-69
2023/04/17 00:41:46;;;;;;;38.33;19.85;;;;;;;;;;5104778;28;20051;-69
2023/04/17 00:44:13;;;;;;;42.45;21.15;;;;;;;;;;5108072;28;20052;-69
2023/04/17 00:46:41;;;;;;;39.80;21.73;;;;;;;;;;5107181;28;20058;-69
2023/04/17 00:49:09;;;;;;;44.50;21.90;;;;;;;;;;5097568;28;20047;-69
2023/04/17 00:51:36;;;;;;;41.85;20.80;;;;;;;;;;5102261;28;20047;-69
2023/04/17 00:54:03;;;;;;;39.70;20.50;;;;;;;;;;5099064;28;20051;-69
2023/04/17 00:56:31;;;;;;;40.03;20.10;;;;;;;;;;5105446;28;20056;-68
2023/04/17 00:59:00;;;;;;;36.63;18.95;;;;;;;;;;5107600;28;20044;-69
2023/04/17 01:01:27;;;;;;;37.85;18.42;;;;;;;;;;5105974;28;20486;-69
2023/04/17 01:03:55;;;;;;;36.42;19.92;;;;;;;;;;5103269;28;20047;-69
2023/04/17 01:06:22;;;;;;;35.83;19.50;;;;;;;;;;5102416;28;20039;-69
2023/04/17 01:08:50;;;;;;;37.13;18.33;;;;;;;;;;5100635;28;20519;-69
2023/04/17 01:11:17;;;;;;;31.70;18.30;;;;;;;;;;5103760;28;20058;-69
2023/04/17 01:13:45;;;;;;;30.00;16.90;;;;;;;;;;5106954;28;20054;-68
2023/04/17 01:16:14;;;;;;;31.92;17.15;;;;;;;;;;5104073;27;20079;-69
2023/04/17 01:18:41;;;;;;;29.20;16.92;;;;;;;;;;5103455;28;20574;-69
2023/04/17 01:21:08;;;;;;;33.05;17.05;;;;;;;;;;5105590;28;20044;-68
2023/04/17 01:23:43;;;;;;;31.17;16.25;;;;;;;;;;5101233;28;20059;-69
2023/04/17 01:26:12;;;;;;;29.08;15.65;;;;;;;;;;5103291;28;20051;-69
2023/04/17 01:28:40;;;;;;;32.45;16.95;;;;;;;;;;5105580;28;20050;-69
2023/04/17 01:31:07;;;;;;;33.15;16.05;;;;;;;;;;5106914;28;20067;-69
2023/04/17 01:33:34;;;;;;;33.30;16.17;;;;;;;;;;5103336;28;20043;-69
2023/04/17 01:36:01;;;;;;;35.75;16.65;;;;;;;;;;5105269;28;20047;-69
2023/04/17 01:38:29;;;;;;;30.63;15.38;;;;;;;;;;5105221;28;20047;-68
2023/04/17 01:40:56;;;;;;;30.17;16.75;;;;;;;;;;5104141;28;20058;-70
2023/04/17 01:43:24;;;;;;;30.92;15.68;;;;;;;;;;5100821;28;20052;-69
2023/04/17 01:45:52;;;;;;;30.35;14.70;;;;;;;;;;5099295;28;20055;-69
2023/04/17 01:48:19;;;;;;;30.40;16.05;;;;;;;;;;5101797;28;20075;-69
2023/04/17 01:50:47;;;;;;;34.35;16.38;;;;;;;;;;5101920;28;20044;-68
2023/04/17 01:53:14;;;;;;;37.42;16.20;;;;;;;;;;5099302;28;20051;-69
2023/04/17 01:55:41;;;;;;;31.63;15.10;;;;;;;;;;5102927;28;20108;-69
2023/04/17 01:58:08;;;;;;;34.63;15.98;;;;;;;;;;5104988;28;20055;-69
2023/04/17 02:00:37;;;;;;;36.22;15.43;;;;;;;;;;5107888;28;20040;-69
2023/04/17 02:03:04;;;;;;;32.83;16.42;;;;;;;;;;5103362;28;20048;-69
2023/04/17 02:05:32;;;;;;;29.35;14.88;;;;;;;;;;5110922;27;20157;-69
2023/04/17 02:07:59;;;;;;;37.17;17.00;;;;;;;;;;5110098;28;20420;-69
2023/04/17 02:10:26;;;;;;;33.05;14.63;;;;;;;;;;5109580;28;20048;-69
2023/04/17 02:12:53;;;;;;;40.60;15.93;;;;;;;;;;5109932;27;20044;-68
2023/04/17 02:15:20;;;;;;;42.70;16.48;;;;;;;;;;5109391;28;20051;-69
2023/04/17 02:17:49;;;;;;;38.70;16.88;;;;;;;;;;5108477;28;20463;-69
2023/04/17 02:20:16;;;;;;;32.03;15.77;;;;;;;;;;5107709;28;20079;-68
2023/04/17 02:22:44;;;;;;;39.97;15.75;;;;;;;;;;5106689;28;20094;-68
2023/04/17 02:25:11;;;;;;;38.78;15.15;;;;;;;;;;5105054;27;20070;-69
2023/04/17 02:27:38;;;;;;;35.53;15.18;;;;;;;;;;5110651;27;20051;-69
2023/04/17 02:30:06;;;;;;;39.50;15.18;;;;;;;;;;5102370;28;20044;-69
2023/04/17 02:32:33;;;;;;;56.22;16.15;;;;;;;;;;5109484;28;20043;-69
2023/04/17 02:35:02;;;;;;;48.38;16.65;;;;;;;;;;5108156;28;20070;-69
2023/04/17 02:37:29;;;;;;;41.60;17.17;;;;;;;;;;5109457;27;20043;-69
2023/04/17 02:39:57;;;;;;;40.33;17.30;;;;;;;;;;5104888;27;20054;-68
2023/04/17 02:42:24;;;;;;;31.90;15.85;;;;;;;;;;5108013;28;20087;-69
2023/04/17 02:44:52;;;;;;;27.02;14.50;;;;;;;;;;5103842;28;20048;-69
2023/04/17 02:47:20;;;;;;;31.70;16.02;;;;;;;;;;5110424;27;20050;-69
2023/04/17 02:49:47;;;;;;;28.33;16.25;;;;;;;;;;5109108;28;20055;-69
2023/04/17 02:52:16;;;;;;;27.77;15.73;;;;;;;;;;5109085;28;20486;-69
2023/04/17 02:54:43;;;;;;;61.70;16.85;;;;;;;;;;5102541;28;20060;-69
2023/04/17 02:57:10;;;;;;;33.88;15.88;;;;;;;;;;5107097;28;20047;-68
2023/04/17 02:59:37;;;;;;;60.08;16.80;;;;;;;;;;5107162;28;20047;-69
2023/04/17 03:02:05;;;;;;;43.22;16.00;;;;;;;;;;5109628;27;20519;-69
2023/04/17 03:04:34;;;;;;;62.85;15.82;;;;;;;;;;5106077;28;20056;-69
2023/04/17 03:07:02;;;;;;;80.07;17.60;;;;;;;;;;5106958;27;20050;-69
2023/04/17 03:09:31;;;;;;;87.93;16.65;;;;;;;;;;5108626;28;20387;-68
2023/04/17 03:11:58;;;;;;;89.90;19.63;;;;;;;;;;5106811;27;20048;-69
2023/04/17 03:14:25;;;;;;;53.13;19.83;;;;;;;;;;5102023;27;20043;-68
2023/04/17 03:16:53;;;;;;;92.35;20.08;;;;;;;;;;5110241;27;20040;-68
2023/04/17 03:19:20;;;;;;;68.75;18.70;;;;;;;;;;5108154;28;20089;-69
2023/04/17 03:21:47;;;;;;;132.77;20.55;;;;;;;;;;5108824;28;20104;-69
2023/04/17 03:24:15;;;;;;;71.35;19.70;;;;;;;;;;5106302;28;20050;-69
2023/04/17 03:26:43;;;;;;;69.78;19.73;;;;;;;;;;5109247;28;20048;-69
2023/04/17 03:29:10;;;;;;;62.80;19.00;;;;;;;;;;5108471;28;20044;-68
2023/04/17 03:31:38;;;;;;;83.43;20.85;;;;;;;;;;5110166;28;20051;-69
2023/04/17 03:34:05;;;;;;;83.72;19.83;;;;;;;;;;5102946;27;20092;-69
2023/04/17 03:36:32;;;;;;;94.05;20.85;;;;;;;;;;5108240;28;20058;-69
2023/04/17 03:38:59;;;;;;;150.95;21.73;;;;;;;;;;5103066;28;20048;-69
2023/04/17 03:41:27;;;;;;;81.10;19.73;;;;;;;;;;5109170;28;20059;-69
2023/04/17 03:43:55;;;;;;;106.65;20.45;;;;;;;;;;5108399;27;20047;-69
2023/04/17 03:46:22;;;;;;;78.38;18.90;;;;;;;;;;5107705;27;20043;-69
2023/04/17 03:48:50;;;;;;;61.92;19.83;;;;;;;;;;5106741;28;20438;-69
2023/04/17 03:51:17;;;;;;;120.80;20.02;;;;;;;;;;5107659;28;20173;-69
2023/04/17 03:53:44;;;;;;;78.32;20.08;;;;;;;;;;5104094;28;20047;-69
2023/04/17 03:56:11;;;;;;;102.65;18.63;;;;;;;;;;5106951;28;20499;-69
2023/04/17 03:58:39;;;;;;;102.78;18.17;;;;;;;;;;5108778;28;20050;-69
2023/04/17 04:01:09;;;;;;;145.00;18.40;;;;;;;;;;5107801;28;20075;-69
2023/04/17 04:03:37;;;;;;;89.53;18.48;;;;;;;;;;5102095;28;20040;-68
2023/04/17 04:06:06;;;;;;;146.25;18.98;;;;;;;;;;5096800;28;20063;-69
2023/04/17 04:08:33;;;;;;;83.60;18.58;;;;;;;;;;5108821;28;20040;-69
2023/04/17 04:11:02;;;;;;;39.72;18.00;;;;;;;;;;5103268;28;20054;-68
2023/04/17 04:13:29;;;;;;;81.65;19.05;;;;;;;;;;5107883;27;20047;-69
2023/04/17 04:15:56;;;;;;;90.90;18.23;;;;;;;;;;5103168;28;20043;-69
2023/04/17 04:18:25;;;;;;;95.38;18.55;;;;;;;;;;5107052;28;20047;-69
2023/04/17 04:20:52;;;;;;;219.10;18.60;;;;;;;;;;5108035;28;20047;-69
2023/04/17 04:23:19;;;;;;;114.25;17.95;;;;;;;;;;5107445;27;20055;-69
2023/04/17 04:25:48;;;;;;;122.45;20.45;;;;;;;;;;5104383;28;20495;-69
2023/04/17 04:28:16;;;;;;;166.73;19.92;;;;;;;;;;5106447;28;20055;-69
2023/04/17 04:30:49;;;;;;;106.32;20.15;;;;;;;;;;5106877;28;20054;-69
2023/04/17 04:33:16;;;;;;;54.83;18.17;;;;;;;;;;5095651;28;20468;-69
2023/04/17 04:35:46;;;;;;;52.67;18.08;;;;;;;;;;5104753;28;20039;-69
2023/04/17 04:38:14;;;;;;;249.35;19.88;;;;;;;;;;5107907;27;20047;-69
2023/04/17 04:40:42;;;;;;;134.90;18.17;;;;;;;;;;5105941;28;20079;-69
2023/04/17 04:43:10;;;;;;;88.90;17.00;;;;;;;;;;5102415;28;21375;-69
2023/04/17 04:45:37;;;;;;;131.90;17.58;;;;;;;;;;5108465;27;20105;-69
2023/04/17 04:48:04;;;;;;;163.82;17.77;;;;;;;;;;5103343;28;20098;-69
2023/04/17 04:50:32;;;;;;;119.60;17.05;;;;;;;;;;5104832;28;20047;-69
2023/04/17 04:53:00;;;;;;;109.55;16.73;;;;;;;;;;5105884;28;20059;-69
2023/04/17 04:55:29;;;;;;;92.13;17.27;;;;;;;;;;5106649;28;20046;-70
2023/04/17 04:57:56;;;;;;;104.55;17.83;;;;;;;;;;5105790;28;20398;-69
2023/04/17 05:00:24;;;;;;;95.80;17.98;;;;;;;;;;5109550;28;20372;-68
2023/04/17 05:02:51;;;;;;;88.88;17.20;;;;;;;;;;5104273;28;20047;-69
2023/04/17 05:05:18;;;;;;;168.38;20.50;;;;;;;;;;5105602;28;20058;-69
2023/04/17 05:07:45;;;;;;;98.20;17.88;;;;;;;;;;5103018;27;20127;-69
2023/04/17 05:10:14;;;;;;;89.85;20.42;;;;;;;;;;5107517;28;20398;-69
2023/04/17 05:12:42;;;;;;;107.85;21.25;;;;;;;;;;5105629;28;20070;-69
2023/04/17 05:15:09;;;;;;;130.93;19.48;;;;;;;;;;5104974;28;20134;-69
2023/04/17 05:17:37;;;;;;;197.27;21.60;;;;;;;;;;5102865;28;20133;-68
2023/04/17 05:20:06;;;;;;;247.15;23.33;;;;;;;;;;5103389;28;20043;-69
2023/04/17 05:22:33;;;;;;;129.68;21.50;;;;;;;;;;5104083;28;20053;-69
2023/04/17 05:25:01;;;;;;;146.10;23.52;;;;;;;;;;5107307;28;20051;-69
2023/04/17 05:27:29;;;;;;;88.50;20.20;;;;;;;;;;5107676;28;20044;-69
2023/04/17 05:29:57;;;;;;;71.97;20.92;;;;;;;;;;5107624;28;20077;-69
2023/04/17 05:32:24;;;;;;;45.50;18.10;;;;;;;;;;5104002;28;20406;-69
2023/04/17 05:34:51;;;;;;;56.78;19.77;;;;;;;;;;5105992;28;20371;-69
2023/04/17 05:37:18;;;;;;;128.43;27.80;;;;;;;;;;5104730;28;20051;-69
2023/04/17 05:39:45;;;;;;;93.93;19.35;;;;;;;;;;5107502;27;20421;-66
2023/04/17 05:42:13;;;;;;;104.35;24.58;;;;;;;;;;5110998;28;20054;-67
2023/04/17 05:44:41;;;;;;;69.78;20.38;;;;;;;;;;5108879;27;20052;-67
2023/04/17 05:47:09;;;;;;;67.43;22.02;;;;;;;;;;5102254;27;20055;-67
2023/04/17 05:49:36;;;;;;;45.83;19.95;;;;;;;;;;5109305;28;20043;-66
2023/04/17 05:52:03;;;;;;;86.53;22.70;;;;;;;;;;5110870;28;20494;-67
2023/04/17 05:54:30;;;;;;;72.97;27.15;;;;;;;;;;5106947;28;20043;-67
2023/04/17 05:56:58;;;;;;;44.95;19.67;;;;;;;;;;5109331;28;20142;-67
2023/04/17 05:59:26;;;;;;;58.60;21.98;;;;;;;;;;5107414;28;20130;-67
2023/04/17 06:01:54;;;;;;;104.30;41.22;;;;;;;;;;5105195;28;20047;-67
2023/04/17 06:04:22;;;;;;;58.55;25.30;;;;;;;;;;5107929;28;20055;-67
2023/04/17 06:06:49;;;;;;;69.85;22.08;;;;;;;;;;5108237;28;20052;-67
2023/04/17 06:09:16;;;;;;;60.05;20.13;;;;;;;;;;5107138;28;20085;-67
2023/04/17 06:11:43;;;;;;;38.20;18.27;;;;;;;;;;5106673;27;20048;-67
2023/04/17 06:14:11;;;;;;;50.72;19.75;;;;;;;;;;5111209;28;20051;-70
2023/04/17 06:16:38;;;;;;;41.05;18.75;;;;;;;;;;5111540;27;20396;-66
2023/04/17 06:19:06;;;;;;;51.75;22.35;;;;;;;;;;5109256;28;20139;-67
2023/04/17 06:21:34;;;;;;;45.38;19.33;;;;;;;;;;5107350;27;20465;-67
2023/04/17 06:24:01;;;;;;;39.20;19.83;;;;;;;;;;5109447;27;20051;-66
2023/04/17 06:26:28;;;;;;;48.67;22.08;;;;;;;;;;5110373;28;20120;-67
2023/04/17 06:28:55;;;;;;;48.22;20.17;;;;;;;;;;5110740;28;20042;-67
2023/04/17 06:31:23;;;;;;;45.13;22.50;;;;;;;;;;5108613;28;20059;-67
2023/04/17 06:33:50;;;;;;;52.65;22.30;;;;;;;;;;5109916;28;20046;-67
2023/04/17 06:36:18;;;;;;;61.83;25.02;;;;;;;;;;5110607;28;20176;-67
2023/04/17 06:38:46;;;;;;;53.38;23.02;;;;;;;;;;5112273;27;20062;-68
2023/04/17 06:41:13;;;;;;;51.75;22.15;;;;;;;;;;5110067;27;20047;-67
2023/04/17 06:43:40;;;;;;;53.03;22.08;;;;;;;;;;5112314;27;20112;-67
2023/04/17 06:46:08;;;;;;;51.28;22.13;;;;;;;;;;5106513;28;20048;-67
2023/04/17 06:48:35;;;;;;;37.97;20.05;;;;;;;;;;5108251;27;20055;-67
2023/04/17 06:51:02;;;;;;;35.33;18.63;;;;;;;;;;5111823;27;20069;-67
2023/04/17 06:53:31;;;;;;;43.40;19.55;;;;;;;;;;5107533;28;20406;-67
2023/04/17 06:55:58;;;;;;;45.50;20.83;;;;;;;;;;5108349;28;20054;-67
2023/04/17 06:58:25;;;;;;;61.00;27.77;;;;;;;;;;5110520;28;20063;-67
2023/04/17 07:00:53;;;;;;;58.97;29.35;;;;;;;;;;5108349;27;20155;-67
2023/04/17 07:03:20;;;;;;;45.10;19.80;;;;;;;;;;5110286;28;20044;-67
2023/04/17 07:05:47;;;;;;;44.25;20.98;;;;;;;;;;5108158;28;20044;-67
2023/04/17 07:08:17;;;;;;;61.30;25.95;;;;;;;;;;5110059;27;20047;-67
2023/04/17 07:10:45;;;;;;;51.10;23.98;;;;;;;;;;5101309;27;20050;-67
2023/04/17 07:13:12;;;;;;;46.28;21.83;;;;;;;;;;5108458;28;20066;-67
2023/04/17 07:15:40;;;;;;;42.60;20.27;;;;;;;;;;5109839;27;20047;-68
2023/04/17 07:18:07;;;;;;;39.40;20.35;;;;;;;;;;5107720;28;20046;-67
2023/04/17 07:20:34;;;;;;;36.22;18.98;;;;;;;;;;5108683;28;20048;-67
2023/04/17 07:23:01;;;;;;;28.48;17.75;;;;;;;;;;5108707;28;20578;-66
2023/04/17 07:25:29;;;;;;;32.53;17.10;;;;;;;;;;5109970;28;20044;-67
2023/04/17 07:27:57;;;;;;;37.65;17.33;;;;;;;;;;5108342;28;20044;-67
2023/04/17 07:30:25;;;;;;;32.50;18.13;;;;;;;;;;5108457;28;20047;-67
2023/04/17 07:32:52;;;;;;;37.00;19.85;;;;;;;;;;5109620;28;20134;-67
2023/04/17 07:35:19;;;;;;;37.47;18.85;;;;;;;;;;5108041;28;20079;-67
2023/04/17 07:37:46;;;;;;;45.17;20.60;;;;;;;;;;5108162;28;20044;-67
2023/04/17 07:40:14;;;;;;;36.67;19.00;;;;;;;;;;5108089;28;20526;-67
2023/04/17 07:42:41;;;;;;;32.55;19.35;;;;;;;;;;5109399;28;20051;-67
2023/04/17 07:45:10;;;;;;;36.17;19.60;;;;;;;;;;5109780;27;20058;-67
2023/04/17 07:47:38;;;;;;;37.90;19.33;;;;;;;;;;5107565;28;20051;-67
2023/04/17 07:50:05;;;;;;;36.15;18.75;;;;;;;;;;5103989;28;20409;-67
2023/04/17 07:52:32;;;;;;;30.52;17.80;;;;;;;;;;5109472;28;20533;-67
2023/04/17 07:55:00;;;;;;;28.00;16.83;;;;;;;;;;5103549;28;20839;-67
2023/04/17 07:57:28;;;;;;;27.38;16.60;;;;;;;;;;5107827;28;20383;-67
2023/04/17 07:59:56;;;;;;;26.95;16.63;;;;;;;;;;5109224;28;20105;-67
2023/04/17 08:02:25;;;;;;;26.33;16.33;;;;;;;;;;5106010;27;20184;-67
2023/04/17 08:04:54;;;;;;;27.45;17.10;;;;;;;;;;5105758;28;20479;-67
2023/04/17 08:07:21;;;;;;;22.00;15.13;;;;;;;;;;5108494;28;20059;-67
2023/04/17 08:09:49;;;;;;;22.70;13.90;;;;;;;;;;5108454;28;20097;-67
2023/04/17 08:12:17;;;;;;;21.98;15.13;;;;;;;;;;5104491;28;20059;-67
2023/04/17 08:14:44;;;;;;;25.27;15.43;;;;;;;;;;5107371;28;20177;-67
2023/04/17 08:17:11;;;;;;;25.98;16.15;;;;;;;;;;5107799;28;20494;-67
2023/04/17 08:19:40;;;;;;;24.63;15.80;;;;;;;;;;5106645;28;20043;-67
2023/04/17 08:22:07;;;;;;;28.00;16.85;;;;;;;;;;5107606;28;20490;-67
2023/04/17 08:24:34;;;;;;;29.25;16.80;;;;;;;;;;5108752;28;20047;-67
2023/04/17 08:27:02;;;;;;;31.38;16.67;;;;;;;;;;5107986;28;20047;-67
2023/04/17 08:29:29;;;;;;;32.38;17.92;;;;;;;;;;5106355;28;20135;-67
2023/04/17 08:31:56;;;;;;;36.25;18.90;;;;;;;;;;5108091;28;20043;-67
2023/04/17 08:34:24;;;;;;;39.90;19.00;;;;;;;;;;5105045;28;20071;-67
2023/04/17 08:36:53;;;;;;;40.85;20.42;;;;;;;;;;5107756;27;20059;-67
2023/04/17 08:39:20;;;;;;;46.67;22.58;;;;;;;;;;5107722;28;20046;-67
2023/04/17 08:41:50;;;;;;;48.35;22.95;;;;;;;;;;5113301;27;20039;-67
2023/04/17 08:44:19;;;;;;;47.00;22.50;;;;;;;;;;5106120;28;20402;-67
2023/04/17 08:46:47;;;;;;;41.08;23.05;;;;;;;;;;5105246;28;20051;-67
2023/04/17 08:49:15;;;;;;;39.63;21.33;;;;;;;;;;5099408;28;20101;-67
2023/04/17 08:51:42;;;;;;;36.10;19.83;;;;;;;;;;5103908;28;20051;-67
2023/04/17 08:54:11;;;;;;;34.20;19.40;;;;;;;;;;5098615;28;20048;-67
2023/04/17 08:56:38;;;;;;;28.58;17.95;;;;;;;;;;5104446;28;20126;-67
2023/04/17 08:59:05;;;;;;;25.30;16.65;;;;;;;;;;5107721;27;20495;-67
2023/04/17 09:01:33;;;;;;;25.10;16.70;;;;;;;;;;5108494;28;20474;-67
2023/04/17 09:04:00;;;;;;;24.23;15.93;;;;;;;;;;5105795;28;20187;-67
2023/04/17 09:06:28;;;;;;;23.00;14.80;;;;;;;;;;5108290;28;20101;-67
2023/04/17 09:08:58;;;;;;;22.42;14.80;;;;;;;;;;5107198;28;20230;-67
2023/04/17 09:11:27;;;;;;;23.55;14.57;;;;;;;;;;5105379;28;20059;-67
2023/04/17 09:13:55;;;;;;;20.50;13.77;;;;;;;;;;5106347;28;20411;-67
2023/04/17 09:16:24;;;;;;;20.00;13.05;;;;;;;;;;5112229;28;20055;-67
2023/04/17 09:18:51;;;;;;;20.77;14.50;;;;;;;;;;5111538;28;20105;-67
2023/04/17 09:21:19;;;;;;;18.95;13.13;;;;;;;;;;5111477;27;20509;-67
2023/04/17 09:23:47;;;;;;;21.00;13.48;;;;;;;;;;5115453;27;20043;-67
2023/04/17 09:26:14;;;;;;;20.58;13.70;;;;;;;;;;5110399;27;20145;-67
2023/04/17 09:29:00;;;;;;;21.13;13.02;;;;;;;;;;5111535;28;20130;-67
2023/04/17 09:31:29;;;;;;;17.52;12.45;;;;;;;;;;5111346;28;20055;-67
2023/04/17 09:33:57;;;;;;;18.77;12.73;;;;;;;;;;5111122;28;20501;-67
2023/04/17 09:36:26;;;;;;;21.75;13.10;;;;;;;;;;5110452;28;20097;-67
2023/04/17 09:38:53;;;;;;;18.95;12.43;;;;;;;;;;5110768;28;20063;-67
2023/04/17 09:41:24;;;;;;;18.05;12.43;;;;;;;;;;5108457;28;20491;-67
2023/04/17 09:43:53;;;;;;;19.83;13.65;;;;;;;;;;5107305;28;20057;-68
2023/04/17 09:46:40;;;;;;;21.30;14.00;;;;;;;;;;5112097;27;20070;-67
2023/04/17 09:49:09;;;;;;;19.45;14.05;;;;;;;;;;5102825;28;20047;-67
2023/04/17 09:51:37;;;;;;;19.90;13.60;;;;;;;;;;5111039;28;20498;-67
2023/04/17 09:54:05;;;;;;;20.10;12.35;;;;;;;;;;5108127;28;20414;-67
2023/04/17 09:56:34;;;;;;;17.75;12.95;;;;;;;;;;5112477;27;20051;-67
2023/04/17 09:59:03;;;;;;;16.10;11.07;;;;;;;;;;5109213;28;20051;-67
2023/04/17 10:01:31;;;;;;;16.48;11.65;;;;;;;;;;5107747;28;20043;-68
2023/04/17 10:03:59;;;;;;;15.98;10.10;;;;;;;;;;5110139;27;20048;-67
2023/04/17 10:06:26;;;;;;;15.07;10.68;;;;;;;;;;5110820;28;20047;-68
2023/04/17 10:08:54;;;;;;;14.90;10.40;;;;;;;;;;5110214;28;20055;-67
2023/04/17 10:11:22;;;;;;;15.25;10.73;;;;;;;;;;5111674;28;20498;-67
2023/04/17 10:13:53;;;;;;;14.30;10.45;;;;;;;;;;5109096;28;20039;-67
2023/04/17 10:16:33;;;;;;;15.90;10.15;;;;;;;;;;5098469;28;20051;-67
2023/04/17 10:19:15;;;;;;;13.25;10.05;;;;;;;;;;5099147;27;20055;-67
2023/04/17 10:21:43;;;;;;;13.43;9.60;;;;;;;;;;5105615;28;20043;-68
2023/04/17 10:24:25;;;;;;;12.88;9.80;;;;;;;;;;5108206;28;20507;-67
2023/04/17 10:26:52;;;;;;;17.25;10.50;;;;;;;;;;5111346;28;20113;-67
2023/04/17 10:29:39;;;;;;;16.90;10.48;;;;;;;;;;5109205;28;20044;-67
2023/04/17 10:32:17;;;;;;;15.80;10.65;;;;;;;;;;5109302;28;20051;-67
2023/04/17 10:34:45;;;;;;;15.20;10.82;;;;;;;;;;5110651;27;20079;-67
2023/04/17 10:37:14;;;;;;;13.70;10.25;;;;;;;;;;5106500;28;20085;-67
2023/04/17 10:39:51;;;;;;;15.43;11.07;;;;;;;;;;5110296;27;20039;-67
2023/04/17 10:42:19;;;;;;;14.95;10.75;;;;;;;;;;5104597;27;20055;-67
2023/04/17 10:44:46;;;;;;;16.40;11.38;;;;;;;;;;5111269;27;20054;-67
2023/04/17 10:47:14;;;;;;;13.82;10.90;;;;;;;;;;5106474;28;20397;-67
2023/04/17 10:49:49;;;;;;;18.60;11.75;;;;;;;;;;5104508;28;20097;-67
2023/04/17 10:52:36;;;;;;;15.73;11.15;;;;;;;;;;5108497;28;20105;-68
2023/04/17 10:55:04;;;;;;;17.58;10.52;;;;;;;;;;5105362;28;20062;-67
2023/04/17 10:57:55;;;;;;;17.00;10.57;;;;;;;;;;5106357;28;20051;-68
2023/04/17 11:00:28;;;;;;;15.52;10.20;;;;;;;;;;5096295;28;20056;-68
2023/04/17 11:02:55;;;;;;;14.73;10.18;;;;;;;;;;5108739;28;20083;-68
2023/04/17 11:05:24;;;;;;;12.50;10.07;;;;;;;;;;5107023;27;20059;-68
2023/04/17 11:07:51;;;;;;;13.20;9.77;;;;;;;;;;5105465;28;20047;-68
2023/04/17 11:10:19;;;;;;;14.93;9.45;;;;;;;;;;5101714;27;20056;-68
2023/04/17 11:12:47;;;;;;;13.63;8.90;;;;;;;;;;5107845;27;20051;-68
2023/04/17 11:15:15;;;;;;;12.70;9.82;;;;;;;;;;5104970;27;20122;-68
2023/04/17 11:17:47;;;;;;;17.20;9.38;;;;;;;;;;5111668;27;20055;-68
2023/04/17 11:20:16;;;;;;;13.52;10.32;;;;;;;;;;5105539;27;20048;-68
2023/04/17 11:22:45;;;;;;;11.02;9.52;;;;;;;;;;5105690;28;20124;-68
2023/04/17 11:25:22;;;;;;;14.38;10.18;;;;;;;;;;5107227;27;20075;-68
2023/04/17 11:27:52;;;;;;;13.10;9.80;;;;;;;;;;5102824;28;20040;-68
2023/04/17 11:30:27;;;;;;;13.90;10.00;;;;;;;;;;5103747;28;20055;-68
2023/04/17 11:32:55;;;;;;;14.05;10.35;;;;;;;;;;5105200;28;20041;-68
2023/04/17 11:35:32;;;;;;;13.60;9.57;;;;;;;;;;5101823;28;20047;-68
2023/04/17 11:38:20;;;;;;;17.13;10.18;;;;;;;;;;5103339;28;20058;-68
2023/04/17 11:40:50;;;;;;;14.05;9.15;;;;;;;;;;5101299;28;20047;-68
2023/04/17 11:43:17;;;;;;;11.80;9.27;;;;;;;;;;5101868;28;20051;-68
2023/04/17 11:45:45;;;;;;;11.38;8.95;;;;;;;;;;5108674;27;20047;-69
2023/04/17 11:48:13;;;;;;;13.38;8.60;;;;;;;;;;5102890;28;20056;-69
2023/04/17 11:50:41;;;;;;;13.23;9.20;;;;;;;;;;5099861;28;20048;-67
2023/04/17 11:53:09;;;;;;;14.50;9.07;;;;;;;;;;5106333;28;20055;-66
2023/04/17 11:55:36;;;;;;;14.20;9.27;;;;;;;;;;5102432;27;20403;-66
2023/04/17 11:58:06;;;;;;;13.15;9.27;;;;;;;;;;5097454;28;20051;-66
2023/04/17 12:00:36;;;;;;;14.50;9.38;;;;;;;;;;5108007;27;20052;-66
2023/04/17 12:03:04;;;;;;;11.45;8.98;;;;;;;;;;5108702;28;20518;-66
2023/04/17 12:05:31;;;;;;;12.05;8.95;;;;;;;;;;5105247;28;20050;-66
2023/04/17 12:08:03;;;;;;;13.52;9.75;;;;;;;;;;5108373;28;20127;-67
2023/04/17 12:10:44;;;;;;;11.43;9.30;;;;;;;;;;5102090;28;20140;-66
2023/04/17 12:13:13;;;;;;;13.23;10.55;;;;;;;;;;5105044;28;20122;-67
2023/04/17 12:15:40;;;;;;;14.25;10.32;;;;;;;;;;5102511;28;20105;-66
2023/04/17 12:18:08;;;;;;;18.60;10.52;;;;;;;;;;5102595;28;20070;-67
2023/04/17 12:20:36;;;;;;;17.02;10.52;;;;;;;;;;5104551;28;20036;-66
2023/04/17 12:23:04;;;;;;;16.00;11.02;;;;;;;;;;5104974;28;20419;-66
2023/04/17 12:25:32;;;;;;;14.15;11.20;;;;;;;;;;5107237;28;20046;-67
2023/04/17 12:27:59;;;;;;;15.93;10.77;;;;;;;;;;5105609;28;20118;-66
2023/04/17 12:30:28;;;;;;;13.55;10.90;;;;;;;;;;5106269;28;20047;-67
2023/04/17 12:32:55;;;;;;;16.17;11.82;;;;;;;;;;5105923;27;20072;-67
2023/04/17 12:35:24;;;;;;;20.60;11.02;;;;;;;;;;5104505;28;20058;-67
2023/04/17 12:37:51;;;;;;;15.73;10.98;;;;;;;;;;5106671;28;20604;-67
2023/04/17 12:40:20;;;;;;;15.27;11.30;;;;;;;;;;5104436;27;20047;-66
2023/04/17 12:42:47;;;;;;;14.73;11.18;;;;;;;;;;5105149;28;20157;-67
2023/04/17 12:45:15;;;;;;;15.60;12.07;;;;;;;;;;5106634;28;20062;-66
2023/04/17 12:47:44;;;;;;;14.77;11.82;;;;;;;;;;5105881;28;20110;-67
2023/04/17 12:50:12;;;;;;;13.60;11.73;;;;;;;;;;5102457;28;20044;-66
2023/04/17 12:52:39;;;;;;;13.40;12.00;;;;;;;;;;5106596;28;20466;-66
2023/04/17 12:55:07;;;;;;;17.83;11.95;;;;;;;;;;5102439;28;20044;-67
2023/04/17 12:57:35;;;;;;;16.85;11.98;;;;;;;;;;5105901;28;20051;-67
2023/04/17 13:00:04;;;;;;;13.25;11.25;;;;;;;;;;5105189;28;20059;-67
2023/04/17 13:02:32;;;;;;;15.43;12.40;;;;;;;;;;5106414;28;20104;-67
2023/04/17 13:05:01;;;;;;;16.73;11.80;;;;;;;;;;5105121;28;20044;-67
2023/04/17 13:07:29;;;;;;;17.10;11.73;;;;;;;;;;5104286;28;20121;-67
2023/04/17 13:09:57;;;;;;;16.88;11.25;;;;;;;;;;5106550;28;20047;-66
2023/04/17 13:12:24;;;;;;;14.15;12.13;;;;;;;;;;5105955;28;20367;-67
2023/04/17 13:14:52;;;;;;;16.70;11.98;;;;;;;;;;5105061;28;20420;-67
2023/04/17 13:17:20;;;;;;;15.52;11.50;;;;;;;;;;5106138;28;20047;-66
2023/04/17 13:19:48;;;;;;;19.75;12.57;;;;;;;;;;5106593;28;20504;-67
2023/04/17 13:22:16;;;;;;;19.13;13.70;;;;;;;;;;5099063;28;20058;-67
2023/04/17 13:24:44;;;;;;;16.38;12.43;;;;;;;;;;5106512;28;20335;-66
2023/04/17 13:27:11;;;;;;;15.02;12.15;;;;;;;;;;5104848;28;21199;-66
2023/04/17 13:29:38;;;;;;;17.08;12.15;;;;;;;;;;5101901;28;20402;-67
2023/04/17 13:32:06;;;;;;;18.23;12.02;;;;;;;;;;5103810;28;20051;-66
2023/04/17 13:34:33;;;;;;;18.70;11.75;;;;;;;;;;5106016;28;20525;-67
2023/04/17 13:37:00;;;;;;;14.50;11.88;;;;;;;;;;5106409;28;20048;-67
2023/04/17 13:39:29;;;;;;;16.77;12.77;;;;;;;;;;5103576;28;20474;-67
2023/04/17 13:41:57;;;;;;;15.10;11.98;;;;;;;;;;5105261;28;20108;-67
2023/04/17 13:44:24;;;;;;;13.60;11.32;;;;;;;;;;5103759;28;20039;-67
2023/04/17 13:46:52;;;;;;;14.20;11.35;;;;;;;;;;5103814;28;20436;-67
2023/04/17 13:49:20;;;;;;;15.18;11.45;;;;;;;;;;5099337;28;20495;-67
2023/04/17 13:51:47;;;;;;;12.77;11.48;;;;;;;;;;5102202;28;20079;-67
2023/04/17 13:54:14;;;;;;;16.30;12.45;;;;;;;;;;5101881;28;20433;-67
2023/04/17 13:56:44;;;;;;;13.75;12.30;;;;;;;;;;5105235;28;20047;-67
2023/04/17 13:59:11;;;;;;;13.27;11.48;;;;;;;;;;5105879;28;20468;-67
2023/04/17 14:01:39;;;;;;;13.23;11.73;;;;;;;;;;5110367;28;20044;-67
2023/04/17 14:04:06;;;;;;;13.65;11.63;;;;;;;;;;5107909;28;20079;-67
2023/04/17 14:06:34;;;;;;;14.57;11.68;;;;;;;;;;5104906;28;20079;-67
2023/04/17 14:09:01;;;;;;;12.98;11.57;;;;;;;;;;5109342;28;20062;-67
2023/04/17 14:11:28;;;;;;;13.77;11.05;;;;;;;;;;5110900;27;20790;-67
2023/04/17 14:13:57;;;;;;;14.98;11.60;;;;;;;;;;5102916;27;20507;-67
2023/04/17 14:16:26;;;;;;;12.90;11.30;;;;;;;;;;5104092;28;20479;-67
2023/04/17 14:18:53;;;;;;;13.82;10.73;;;;;;;;;;5111426;28;20108;-66
2023/04/17 14:21:21;;;;;;;12.07;10.35;;;;;;;;;;5108788;27;20098;-67
2023/04/17 14:23:50;;;;;;;10.65;9.52;;;;;;;;;;5110934;28;20100;-67